sensor_id;sensor_type;location;lat;lon;timestamp;P1;durP1;ratioP1;P2;durP2;ratioP2
41897;SDS011;27576;53.366;-1.498;2022-07-29T00:01:28;7.20;;;4.50;;
41897;SDS011;27576;53.366;-1.498;2022-07-29T00:03:53;7.78;;;4.15;;
41897;SDS011;27576;53.366;-1.498;2022-07-29T00:06:19;5.18;;;4.10;;
41897;SDS011;27576;53.366;-1.498;2022-07-29T00:08:45;8.30;;;4.15;;
41897;SDS011;27576;53.366;-1.498;2022-07-29T00:11:11;7.47;;;4.30;;
41897;SDS011;27576;53.366;-1.498;2022-07-29T00:13:36;7.35;;;4.22;;
41897;SDS011;27576;53.366;-1.498;2022-07-29T00:16:02;8.73;;;4.10;;
41897;SDS011;27576;53.366;-1.498;2022-07-29T00:18:28;5.70;;;3.63;;
41897;SDS011;27576;53.366;-1.498;2022-07-29T00:20:54;5.50;;;3.40;;
41897;SDS011;27576;53.366;-1.498;2022-07-29T00:23:19;9.32;;;3.47;;
41897;SDS011;27576;53.366;-1.498;2022-07-29T00:25:45;5.47;;;3.10;;
41897;SDS011;27576;53.366;-1.498;2022-07-29T00:28:10;4.32;;;2.67;;
41897;SDS011;27576;53.366;-1.498;2022-07-29T00:30:35;5.25;;;2.60;;
41897;SDS011;27576;53.366;-1.498;2022-07-29T00:33:01;3.53;;;2.47;;
41897;SDS011;27576;53.366;-1.498;2022-07-29T00:35:27;3.75;;;2.55;;
41897;SDS011;27576;53.366;-1.498;2022-07-29T00:38:14;3.80;;;2.38;;
41897;SDS011;27576;53.366;-1.498;2022-07-29T00:40:42;4.03;;;1.70;;
41897;SDS011;27576;53.366;-1.498;2022-07-29T00:43:08;2.38;;;1.73;;
41897;SDS011;27576;53.366;-1.498;2022-07-29T00:45:34;3.13;;;1.60;;
41897;SDS011;27576;53.366;-1.498;2022-07-29T00:48:00;2.30;;;1.35;;
41897;SDS011;27576;53.366;-1.498;2022-07-29T00:50:26;2.42;;;1.85;;
41897;SDS011;27576;53.366;-1.498;2022-07-29T00:52:51;2.58;;;1.30;;
41897;SDS011;27576;53.366;-1.498;2022-07-29T00:55:17;2.63;;;1.10;;
41897;SDS011;27576;53.366;-1.498;2022-07-29T00:57:44;1.77;;;1.10;;
41897;SDS011;27576;53.366;-1.498;2022-07-29T01:00:15;1.42;;;1.30;;
41897;SDS011;27576;53.366;-1.498;2022-07-29T01:02:43;1.20;;;1.10;;
41897;SDS011;27576;53.366;-1.498;2022-07-29T01:05:08;1.77;;;1.10;;
41897;SDS011;27576;53.366;-1.498;2022-07-29T01:07:36;1.40;;;1.08;;
41897;SDS011;27576;53.366;-1.498;2022-07-29T01:10:06;1.58;;;1.10;;
41897;SDS011;27576;53.366;-1.498;2022-07-29T01:12:34;2.65;;;1.25;;
41897;SDS011;27576;53.366;-1.498;2022-07-29T01:15:02;1.38;;;1.10;;
41897;SDS011;27576;53.366;-1.498;2022-07-29T01:20:10;1.63;;;0.98;;
41897;SDS011;27576;53.366;-1.498;2022-07-29T01:22:40;4.57;;;1.25;;
41897;SDS011;27576;53.366;-1.498;2022-07-29T01:28:06;0.90;;;0.73;;
41897;SDS011;27576;53.366;-1.498;2022-07-29T01:30:34;2.15;;;1.15;;
41897;SDS011;27576;53.366;-1.498;2022-07-29T01:33:05;2.95;;;1.20;;
41897;SDS011;27576;53.366;-1.498;2022-07-29T01:35:41;1.50;;;1.00;;
41897;SDS011;27576;53.366;-1.498;2022-07-29T01:38:09;4.10;;;1.27;;
41897;SDS011;27576;53.366;-1.498;2022-07-29T01:40:45;2.88;;;1.30;;
41897;SDS011;27576;53.366;-1.498;2022-07-29T01:43:15;1.27;;;0.90;;
41897;SDS011;27576;53.366;-1.498;2022-07-29T01:45:48;1.60;;;0.90;;
41897;SDS011;27576;53.366;-1.498;2022-07-29T01:48:19;2.08;;;1.10;;
41897;SDS011;27576;53.366;-1.498;2022-07-29T01:51:24;2.72;;;1.50;;
41897;SDS011;27576;53.366;-1.498;2022-07-29T01:56:31;1.45;;;1.10;;
41897;SDS011;27576;53.366;-1.498;2022-07-29T01:59:01;2.20;;;1.33;;
41897;SDS011;27576;53.366;-1.498;2022-07-29T02:01:29;1.92;;;0.90;;
41897;SDS011;27576;53.366;-1.498;2022-07-29T02:03:57;1.67;;;1.25;;
41897;SDS011;27576;53.366;-1.498;2022-07-29T02:06:26;2.20;;;1.15;;
41897;SDS011;27576;53.366;-1.498;2022-07-29T02:08:54;2.55;;;1.13;;
41897;SDS011;27576;53.366;-1.498;2022-07-29T02:11:21;2.92;;;1.17;;
41897;SDS011;27576;53.366;-1.498;2022-07-29T02:13:47;2.47;;;1.17;;
41897;SDS011;27576;53.366;-1.498;2022-07-29T02:16:15;2.00;;;1.00;;
41897;SDS011;27576;53.366;-1.498;2022-07-29T02:18:43;1.63;;;1.10;;
41897;SDS011;27576;53.366;-1.498;2022-07-29T02:21:11;2.78;;;1.40;;
41897;SDS011;27576;53.366;-1.498;2022-07-29T02:23:39;2.80;;;1.30;;
41897;SDS011;27576;53.366;-1.498;2022-07-29T02:26:04;2.33;;;1.23;;
41897;SDS011;27576;53.366;-1.498;2022-07-29T02:28:32;7.00;;;1.60;;
41897;SDS011;27576;53.366;-1.498;2022-07-29T02:30:59;1.90;;;1.30;;
41897;SDS011;27576;53.366;-1.498;2022-07-29T02:33:27;3.70;;;1.52;;
41897;SDS011;27576;53.366;-1.498;2022-07-29T02:35:54;2.63;;;1.52;;
41897;SDS011;27576;53.366;-1.498;2022-07-29T02:38:21;1.20;;;0.98;;
41897;SDS011;27576;53.366;-1.498;2022-07-29T02:41:11;3.13;;;1.33;;
41897;SDS011;27576;53.366;-1.498;2022-07-29T02:43:39;2.35;;;1.35;;
41897;SDS011;27576;53.366;-1.498;2022-07-29T02:46:14;3.25;;;1.30;;
41897;SDS011;27576;53.366;-1.498;2022-07-29T02:48:48;3.25;;;1.60;;
41897;SDS011;27576;53.366;-1.498;2022-07-29T02:51:28;4.13;;;2.00;;
41897;SDS011;27576;53.366;-1.498;2022-07-29T02:54:06;2.95;;;1.40;;
41897;SDS011;27576;53.366;-1.498;2022-07-29T02:56:35;2.20;;;1.45;;
41897;SDS011;27576;53.366;-1.498;2022-07-29T02:59:03;1.80;;;1.25;;
41897;SDS011;27576;53.366;-1.498;2022-07-29T03:01:33;3.58;;;1.30;;
41897;SDS011;27576;53.366;-1.498;2022-07-29T03:04:01;2.58;;;1.33;;
41897;SDS011;27576;53.366;-1.498;2022-07-29T03:06:30;2.53;;;1.27;;
41897;SDS011;27576;53.366;-1.498;2022-07-29T03:08:57;3.38;;;1.75;;
41897;SDS011;27576;53.366;-1.498;2022-07-29T03:11:24;3.05;;;1.20;;
41897;SDS011;27576;53.366;-1.498;2022-07-29T03:13:51;1.10;;;0.90;;
41897;SDS011;27576;53.366;-1.498;2022-07-29T03:16:18;2.42;;;1.10;;
41897;SDS011;27576;53.366;-1.498;2022-07-29T03:18:44;4.53;;;1.40;;
41897;SDS011;27576;53.366;-1.498;2022-07-29T03:21:10;2.70;;;1.27;;
41897;SDS011;27576;53.366;-1.498;2022-07-29T03:23:35;1.75;;;1.40;;
41897;SDS011;27576;53.366;-1.498;2022-07-29T03:26:01;6.22;;;1.50;;
41897;SDS011;27576;53.366;-1.498;2022-07-29T03:28:27;2.38;;;1.65;;
41897;SDS011;27576;53.366;-1.498;2022-07-29T03:30:52;5.45;;;1.50;;
41897;SDS011;27576;53.366;-1.498;2022-07-29T03:33:18;6.13;;;1.40;;
41897;SDS011;27576;53.366;-1.498;2022-07-29T03:35:43;1.30;;;1.20;;
41897;SDS011;27576;53.366;-1.498;2022-07-29T03:38:09;2.03;;;1.58;;
41897;SDS011;27576;53.366;-1.498;2022-07-29T03:43:05;3.10;;;1.23;;
41897;SDS011;27576;53.366;-1.498;2022-07-29T03:45:34;1.60;;;1.30;;
41897;SDS011;27576;53.366;-1.498;2022-07-29T03:48:02;1.80;;;1.48;;
41897;SDS011;27576;53.366;-1.498;2022-07-29T03:50:32;2.33;;;1.17;;
41897;SDS011;27576;53.366;-1.498;2022-07-29T03:52:59;7.13;;;1.65;;
41897;SDS011;27576;53.366;-1.498;2022-07-29T03:55:26;5.57;;;1.75;;
41897;SDS011;27576;53.366;-1.498;2022-07-29T03:57:54;2.45;;;1.33;;
41897;SDS011;27576;53.366;-1.498;2022-07-29T04:00:22;7.03;;;1.80;;
41897;SDS011;27576;53.366;-1.498;2022-07-29T04:02:49;3.60;;;1.80;;
41897;SDS011;27576;53.366;-1.498;2022-07-29T04:05:16;2.17;;;1.77;;
41897;SDS011;27576;53.366;-1.498;2022-07-29T04:07:45;2.65;;;1.48;;
41897;SDS011;27576;53.366;-1.498;2022-07-29T04:10:14;4.72;;;1.92;;
41897;SDS011;27576;53.366;-1.498;2022-07-29T04:12:44;2.85;;;1.40;;
41897;SDS011;27576;53.366;-1.498;2022-07-29T04:15:09;3.83;;;1.52;;
41897;SDS011;27576;53.366;-1.498;2022-07-29T04:17:36;2.83;;;1.60;;
41897;SDS011;27576;53.366;-1.498;2022-07-29T04:20:01;4.30;;;2.15;;
41897;SDS011;27576;53.366;-1.498;2022-07-29T04:22:27;2.28;;;1.92;;
41897;SDS011;27576;53.366;-1.498;2022-07-29T04:24:53;4.95;;;1.73;;
41897;SDS011;27576;53.366;-1.498;2022-07-29T04:27:19;1.52;;;1.42;;
41897;SDS011;27576;53.366;-1.498;2022-07-29T04:29:44;2.90;;;1.33;;
41897;SDS011;27576;53.366;-1.498;2022-07-29T04:32:10;5.07;;;1.77;;
41897;SDS011;27576;53.366;-1.498;2022-07-29T04:34:35;2.83;;;1.52;;
41897;SDS011;27576;53.366;-1.498;2022-07-29T04:37:00;2.05;;;1.30;;
41897;SDS011;27576;53.366;-1.498;2022-07-29T04:39:26;2.63;;;1.45;;
41897;SDS011;27576;53.366;-1.498;2022-07-29T04:41:51;2.20;;;1.25;;
41897;SDS011;27576;53.366;-1.498;2022-07-29T04:44:16;2.30;;;1.33;;
41897;SDS011;27576;53.366;-1.498;2022-07-29T04:46:42;3.72;;;1.77;;
41897;SDS011;27576;53.366;-1.498;2022-07-29T04:49:07;3.35;;;1.60;;
41897;SDS011;27576;53.366;-1.498;2022-07-29T04:51:33;4.50;;;1.48;;
41897;SDS011;27576;53.366;-1.498;2022-07-29T04:53:59;3.30;;;1.50;;
41897;SDS011;27576;53.366;-1.498;2022-07-29T04:56:24;1.70;;;1.30;;
41897;SDS011;27576;53.366;-1.498;2022-07-29T04:58:50;3.60;;;1.73;;
41897;SDS011;27576;53.366;-1.498;2022-07-29T05:01:15;2.88;;;1.60;;
41897;SDS011;27576;53.366;-1.498;2022-07-29T05:03:41;2.50;;;1.48;;
41897;SDS011;27576;53.366;-1.498;2022-07-29T05:06:06;2.30;;;1.60;;
41897;SDS011;27576;53.366;-1.498;2022-07-29T05:08:32;2.17;;;1.48;;
41897;SDS011;27576;53.366;-1.498;2022-07-29T05:10:57;2.88;;;1.50;;
41897;SDS011;27576;53.366;-1.498;2022-07-29T05:13:23;3.63;;;1.80;;
41897;SDS011;27576;53.366;-1.498;2022-07-29T05:15:48;2.67;;;1.52;;
41897;SDS011;27576;53.366;-1.498;2022-07-29T05:18:14;3.00;;;1.33;;
41897;SDS011;27576;53.366;-1.498;2022-07-29T05:20:39;2.50;;;1.60;;
41897;SDS011;27576;53.366;-1.498;2022-07-29T05:23:04;4.60;;;1.50;;
41897;SDS011;27576;53.366;-1.498;2022-07-29T05:25:30;1.63;;;1.40;;
41897;SDS011;27576;53.366;-1.498;2022-07-29T05:27:56;2.38;;;1.40;;
41897;SDS011;27576;53.366;-1.498;2022-07-29T05:30:21;1.83;;;1.33;;
41897;SDS011;27576;53.366;-1.498;2022-07-29T05:32:47;2.45;;;1.60;;
41897;SDS011;27576;53.366;-1.498;2022-07-29T05:35:13;1.98;;;1.55;;
41897;SDS011;27576;53.366;-1.498;2022-07-29T05:37:39;3.20;;;1.38;;
41897;SDS011;27576;53.366;-1.498;2022-07-29T05:40:05;2.50;;;1.45;;
41897;SDS011;27576;53.366;-1.498;2022-07-29T05:42:30;3.03;;;1.50;;
41897;SDS011;27576;53.366;-1.498;2022-07-29T05:44:56;2.97;;;1.48;;
41897;SDS011;27576;53.366;-1.498;2022-07-29T05:47:22;3.53;;;1.70;;
41897;SDS011;27576;53.366;-1.498;2022-07-29T05:49:48;3.70;;;1.38;;
41897;SDS011;27576;53.366;-1.498;2022-07-29T05:52:13;1.92;;;1.40;;
41897;SDS011;27576;53.366;-1.498;2022-07-29T05:54:39;1.92;;;1.25;;
41897;SDS011;27576;53.366;-1.498;2022-07-29T05:57:04;3.58;;;1.90;;
41897;SDS011;27576;53.366;-1.498;2022-07-29T05:59:30;5.22;;;1.55;;
41897;SDS011;27576;53.366;-1.498;2022-07-29T06:01:56;2.60;;;1.55;;
41897;SDS011;27576;53.366;-1.498;2022-07-29T06:04:22;3.92;;;1.92;;
41897;SDS011;27576;53.366;-1.498;2022-07-29T06:06:47;4.45;;;1.73;;
41897;SDS011;27576;53.366;-1.498;2022-07-29T06:09:13;3.47;;;1.60;;
41897;SDS011;27576;53.366;-1.498;2022-07-29T06:11:39;2.92;;;2.05;;
41897;SDS011;27576;53.366;-1.498;2022-07-29T06:14:05;3.60;;;1.70;;
41897;SDS011;27576;53.366;-1.498;2022-07-29T06:16:31;7.68;;;2.20;;
41897;SDS011;27576;53.366;-1.498;2022-07-29T06:18:56;2.00;;;1.80;;
41897;SDS011;27576;53.366;-1.498;2022-07-29T06:21:21;3.88;;;1.80;;
41897;SDS011;27576;53.366;-1.498;2022-07-29T06:23:47;7.68;;;2.03;;
41897;SDS011;27576;53.366;-1.498;2022-07-29T06:26:12;3.00;;;1.58;;
41897;SDS011;27576;53.366;-1.498;2022-07-29T06:28:38;3.60;;;1.73;;
41897;SDS011;27576;53.366;-1.498;2022-07-29T06:31:04;2.92;;;1.67;;
41897;SDS011;27576;53.366;-1.498;2022-07-29T06:33:30;3.08;;;1.70;;
41897;SDS011;27576;53.366;-1.498;2022-07-29T06:35:56;4.82;;;2.30;;
41897;SDS011;27576;53.366;-1.498;2022-07-29T06:38:21;3.33;;;2.03;;
41897;SDS011;27576;53.366;-1.498;2022-07-29T06:40:47;4.28;;;1.80;;
41897;SDS011;27576;53.366;-1.498;2022-07-29T06:43:37;3.85;;;2.22;;
41897;SDS011;27576;53.366;-1.498;2022-07-29T06:46:08;4.82;;;2.08;;
41897;SDS011;27576;53.366;-1.498;2022-07-29T06:48:38;3.80;;;2.17;;
41897;SDS011;27576;53.366;-1.498;2022-07-29T06:51:05;5.25;;;2.17;;
41897;SDS011;27576;53.366;-1.498;2022-07-29T06:53:31;6.43;;;1.80;;
41897;SDS011;27576;53.366;-1.498;2022-07-29T06:55:58;3.25;;;1.75;;
41897;SDS011;27576;53.366;-1.498;2022-07-29T06:58:25;3.45;;;1.85;;
41897;SDS011;27576;53.366;-1.498;2022-07-29T07:00:51;6.07;;;1.95;;
41897;SDS011;27576;53.366;-1.498;2022-07-29T07:03:17;3.75;;;1.95;;
41897;SDS011;27576;53.366;-1.498;2022-07-29T07:05:43;5.35;;;1.85;;
41897;SDS011;27576;53.366;-1.498;2022-07-29T07:08:10;4.43;;;2.05;;
41897;SDS011;27576;53.366;-1.498;2022-07-29T07:10:36;2.95;;;1.80;;
41897;SDS011;27576;53.366;-1.498;2022-07-29T07:13:01;5.15;;;2.28;;
41897;SDS011;27576;53.366;-1.498;2022-07-29T07:15:27;3.50;;;2.20;;
41897;SDS011;27576;53.366;-1.498;2022-07-29T07:17:53;5.43;;;2.00;;
41897;SDS011;27576;53.366;-1.498;2022-07-29T07:20:19;3.40;;;2.17;;
41897;SDS011;27576;53.366;-1.498;2022-07-29T07:22:44;3.22;;;1.70;;
41897;SDS011;27576;53.366;-1.498;2022-07-29T07:25:10;4.10;;;1.92;;
41897;SDS011;27576;53.366;-1.498;2022-07-29T07:27:36;6.38;;;2.15;;
41897;SDS011;27576;53.366;-1.498;2022-07-29T07:30:02;4.90;;;1.83;;
41897;SDS011;27576;53.366;-1.498;2022-07-29T07:32:30;3.10;;;1.58;;
41897;SDS011;27576;53.366;-1.498;2022-07-29T07:34:56;4.68;;;1.83;;
41897;SDS011;27576;53.366;-1.498;2022-07-29T07:37:22;2.85;;;1.98;;
41897;SDS011;27576;53.366;-1.498;2022-07-29T07:39:49;2.47;;;1.77;;
41897;SDS011;27576;53.366;-1.498;2022-07-29T07:42:15;5.03;;;1.70;;
41897;SDS011;27576;53.366;-1.498;2022-07-29T07:44:40;2.80;;;2.00;;
41897;SDS011;27576;53.366;-1.498;2022-07-29T07:47:06;3.95;;;2.45;;
41897;SDS011;27576;53.366;-1.498;2022-07-29T07:49:31;5.68;;;2.33;;
41897;SDS011;27576;53.366;-1.498;2022-07-29T07:51:57;2.95;;;1.85;;
41897;SDS011;27576;53.366;-1.498;2022-07-29T07:54:22;4.15;;;1.90;;
41897;SDS011;27576;53.366;-1.498;2022-07-29T07:56:48;4.93;;;1.90;;
41897;SDS011;27576;53.366;-1.498;2022-07-29T07:59:14;3.72;;;1.90;;
41897;SDS011;27576;53.366;-1.498;2022-07-29T08:01:40;4.25;;;2.35;;
41897;SDS011;27576;53.366;-1.498;2022-07-29T08:04:06;2.28;;;1.95;;
41897;SDS011;27576;53.366;-1.498;2022-07-29T08:06:32;4.60;;;1.98;;
41897;SDS011;27576;53.366;-1.498;2022-07-29T08:08:59;4.40;;;1.80;;
41897;SDS011;27576;53.366;-1.498;2022-07-29T08:11:25;2.47;;;1.52;;
41897;SDS011;27576;53.366;-1.498;2022-07-29T08:13:51;3.22;;;1.73;;
41897;SDS011;27576;53.366;-1.498;2022-07-29T08:16:17;6.40;;;1.67;;
41897;SDS011;27576;53.366;-1.498;2022-07-29T08:18:43;5.30;;;1.80;;
41897;SDS011;27576;53.366;-1.498;2022-07-29T08:21:09;5.75;;;2.08;;
41897;SDS011;27576;53.366;-1.498;2022-07-29T08:23:35;4.25;;;1.90;;
41897;SDS011;27576;53.366;-1.498;2022-07-29T08:26:07;4.43;;;1.90;;
41897;SDS011;27576;53.366;-1.498;2022-07-29T08:28:38;3.85;;;1.83;;
41897;SDS011;27576;53.366;-1.498;2022-07-29T08:31:05;4.65;;;1.85;;
41897;SDS011;27576;53.366;-1.498;2022-07-29T08:33:30;4.93;;;1.50;;
41897;SDS011;27576;53.366;-1.498;2022-07-29T08:35:56;4.45;;;2.10;;
41897;SDS011;27576;53.366;-1.498;2022-07-29T08:38:22;1.85;;;1.67;;
41897;SDS011;27576;53.366;-1.498;2022-07-29T08:40:47;2.42;;;1.33;;
41897;SDS011;27576;53.366;-1.498;2022-07-29T08:43:13;5.57;;;1.58;;
41897;SDS011;27576;53.366;-1.498;2022-07-29T08:45:43;3.45;;;1.70;;
41897;SDS011;27576;53.366;-1.498;2022-07-29T08:48:14;8.98;;;1.90;;
41897;SDS011;27576;53.366;-1.498;2022-07-29T08:50:41;2.92;;;1.60;;
41897;SDS011;27576;53.366;-1.498;2022-07-29T08:53:07;5.80;;;1.67;;
41897;SDS011;27576;53.366;-1.498;2022-07-29T08:55:35;5.95;;;1.67;;
41897;SDS011;27576;53.366;-1.498;2022-07-29T08:58:03;2.72;;;1.63;;
41897;SDS011;27576;53.366;-1.498;2022-07-29T09:00:30;2.55;;;1.42;;
41897;SDS011;27576;53.366;-1.498;2022-07-29T09:02:57;4.63;;;1.70;;
41897;SDS011;27576;53.366;-1.498;2022-07-29T09:05:24;3.25;;;1.70;;
41897;SDS011;27576;53.366;-1.498;2022-07-29T09:07:51;3.20;;;1.50;;
41897;SDS011;27576;53.366;-1.498;2022-07-29T09:10:17;3.75;;;1.63;;
41897;SDS011;27576;53.366;-1.498;2022-07-29T09:12:42;5.60;;;2.10;;
41897;SDS011;27576;53.366;-1.498;2022-07-29T09:15:08;4.30;;;1.85;;
41897;SDS011;27576;53.366;-1.498;2022-07-29T09:17:40;6.65;;;2.05;;
41897;SDS011;27576;53.366;-1.498;2022-07-29T09:20:11;3.28;;;1.60;;
41897;SDS011;27576;53.366;-1.498;2022-07-29T09:22:40;4.60;;;1.92;;
41897;SDS011;27576;53.366;-1.498;2022-07-29T09:25:06;1.50;;;1.40;;
41897;SDS011;27576;53.366;-1.498;2022-07-29T09:27:32;2.90;;;1.90;;
41897;SDS011;27576;53.366;-1.498;2022-07-29T09:30:03;5.07;;;1.88;;
41897;SDS011;27576;53.366;-1.498;2022-07-29T09:32:31;4.13;;;1.85;;
41897;SDS011;27576;53.366;-1.498;2022-07-29T09:38:09;2.13;;;1.52;;
41897;SDS011;27576;53.366;-1.498;2022-07-29T09:40:37;3.67;;;1.55;;
41897;SDS011;27576;53.366;-1.498;2022-07-29T09:43:10;4.45;;;1.95;;
41897;SDS011;27576;53.366;-1.498;2022-07-29T09:45:36;3.15;;;1.55;;
41897;SDS011;27576;53.366;-1.498;2022-07-29T09:48:15;2.25;;;1.67;;
41897;SDS011;27576;53.366;-1.498;2022-07-29T09:50:43;1.92;;;1.45;;
41897;SDS011;27576;53.366;-1.498;2022-07-29T09:53:10;7.88;;;2.15;;
41897;SDS011;27576;53.366;-1.498;2022-07-29T09:55:49;3.63;;;1.80;;
41897;SDS011;27576;53.366;-1.498;2022-07-29T09:58:19;2.33;;;1.70;;
41897;SDS011;27576;53.366;-1.498;2022-07-29T10:00:47;5.88;;;2.40;;
41897;SDS011;27576;53.366;-1.498;2022-07-29T10:03:14;3.90;;;2.50;;
41897;SDS011;27576;53.366;-1.498;2022-07-29T10:05:40;3.50;;;2.00;;
41897;SDS011;27576;53.366;-1.498;2022-07-29T10:08:07;3.90;;;2.30;;
41897;SDS011;27576;53.366;-1.498;2022-07-29T10:10:35;7.28;;;2.92;;
41897;SDS011;27576;53.366;-1.498;2022-07-29T10:13:07;5.10;;;2.92;;
41897;SDS011;27576;53.366;-1.498;2022-07-29T10:15:35;10.13;;;3.00;;
41897;SDS011;27576;53.366;-1.498;2022-07-29T10:18:04;6.35;;;2.97;;
41897;SDS011;27576;53.366;-1.498;2022-07-29T10:20:30;4.18;;;2.50;;
41897;SDS011;27576;53.366;-1.498;2022-07-29T10:22:56;6.55;;;2.83;;
41897;SDS011;27576;53.366;-1.498;2022-07-29T10:25:22;3.33;;;1.98;;
41897;SDS011;27576;53.366;-1.498;2022-07-29T10:27:49;4.43;;;2.20;;
41897;SDS011;27576;53.366;-1.498;2022-07-29T10:30:18;2.45;;;1.73;;
41897;SDS011;27576;53.366;-1.498;2022-07-29T10:41:26;5.28;;;2.33;;
41897;SDS011;27576;53.366;-1.498;2022-07-29T10:46:55;4.65;;;1.98;;
41897;SDS011;27576;53.366;-1.498;2022-07-29T10:49:22;4.55;;;2.53;;
41897;SDS011;27576;53.366;-1.498;2022-07-29T10:51:51;4.95;;;1.73;;
41897;SDS011;27576;53.366;-1.498;2022-07-29T10:59:38;4.03;;;1.63;;
41897;SDS011;27576;53.366;-1.498;2022-07-29T11:07:20;2.38;;;1.50;;
41897;SDS011;27576;53.366;-1.498;2022-07-29T11:10:08;6.90;;;1.58;;
41897;SDS011;27576;53.366;-1.498;2022-07-29T11:15:02;2.10;;;1.40;;
41897;SDS011;27576;53.366;-1.498;2022-07-29T11:18:16;4.20;;;1.75;;
41897;SDS011;27576;53.366;-1.498;2022-07-29T11:23:19;1.52;;;1.15;;
41897;SDS011;27576;53.366;-1.498;2022-07-29T11:26:12;3.38;;;1.70;;
41897;SDS011;27576;53.366;-1.498;2022-07-29T11:31:45;4.10;;;1.50;;
41897;SDS011;27576;53.366;-1.498;2022-07-29T11:34:30;3.70;;;1.77;;
41897;SDS011;27576;53.366;-1.498;2022-07-29T11:39:34;3.80;;;1.88;;
41897;SDS011;27576;53.366;-1.498;2022-07-29T11:47:24;2.42;;;1.55;;
41897;SDS011;27576;53.366;-1.498;2022-07-29T11:49:52;5.97;;;2.10;;
41897;SDS011;27576;53.366;-1.498;2022-07-29T11:52:19;3.65;;;2.00;;
41897;SDS011;27576;53.366;-1.498;2022-07-29T11:54:47;4.13;;;1.80;;
41897;SDS011;27576;53.366;-1.498;2022-07-29T11:57:14;3.08;;;1.70;;
41897;SDS011;27576;53.366;-1.498;2022-07-29T11:59:43;2.72;;;1.83;;
41897;SDS011;27576;53.366;-1.498;2022-07-29T12:02:10;2.20;;;1.60;;
41897;SDS011;27576;53.366;-1.498;2022-07-29T12:07:31;4.85;;;2.08;;
41897;SDS011;27576;53.366;-1.498;2022-07-29T12:09:59;4.10;;;1.88;;
41897;SDS011;27576;53.366;-1.498;2022-07-29T12:12:26;4.93;;;1.98;;
41897;SDS011;27576;53.366;-1.498;2022-07-29T12:14:52;2.92;;;1.75;;
41897;SDS011;27576;53.366;-1.498;2022-07-29T12:17:33;2.53;;;1.55;;
41897;SDS011;27576;53.366;-1.498;2022-07-29T12:20:03;2.22;;;1.58;;
41897;SDS011;27576;53.366;-1.498;2022-07-29T12:22:30;5.03;;;2.10;;
41897;SDS011;27576;53.366;-1.498;2022-07-29T12:25:10;3.85;;;1.58;;
41897;SDS011;27576;53.366;-1.498;2022-07-29T12:27:39;2.17;;;1.70;;
41897;SDS011;27576;53.366;-1.498;2022-07-29T12:30:05;2.63;;;1.55;;
41897;SDS011;27576;53.366;-1.498;2022-07-29T12:34:58;2.80;;;1.67;;
41897;SDS011;27576;53.366;-1.498;2022-07-29T12:37:25;2.47;;;1.55;;
41897;SDS011;27576;53.366;-1.498;2022-07-29T12:39:51;3.17;;;1.35;;
41897;SDS011;27576;53.366;-1.498;2022-07-29T12:42:17;3.25;;;1.63;;
41897;SDS011;27576;53.366;-1.498;2022-07-29T12:44:46;5.32;;;2.35;;
41897;SDS011;27576;53.366;-1.498;2022-07-29T12:47:13;4.47;;;1.60;;
41897;SDS011;27576;53.366;-1.498;2022-07-29T12:49:39;4.07;;;1.98;;
41897;SDS011;27576;53.366;-1.498;2022-07-29T12:52:23;5.95;;;1.80;;
41897;SDS011;27576;53.366;-1.498;2022-07-29T12:54:50;3.97;;;1.95;;
41897;SDS011;27576;53.366;-1.498;2022-07-29T12:57:15;4.80;;;1.85;;
41897;SDS011;27576;53.366;-1.498;2022-07-29T12:59:41;1.80;;;1.25;;
41897;SDS011;27576;53.366;-1.498;2022-07-29T13:02:06;2.92;;;1.52;;
41897;SDS011;27576;53.366;-1.498;2022-07-29T13:04:32;2.65;;;1.58;;
41897;SDS011;27576;53.366;-1.498;2022-07-29T13:07:06;4.18;;;1.58;;
41897;SDS011;27576;53.366;-1.498;2022-07-29T13:09:39;2.92;;;1.35;;
41897;SDS011;27576;53.366;-1.498;2022-07-29T13:12:09;2.25;;;1.52;;
41897;SDS011;27576;53.366;-1.498;2022-07-29T13:14:36;2.88;;;1.42;;
41897;SDS011;27576;53.366;-1.498;2022-07-29T13:17:18;2.42;;;1.38;;
41897;SDS011;27576;53.366;-1.498;2022-07-29T13:19:49;1.20;;;1.00;;
41897;SDS011;27576;53.366;-1.498;2022-07-29T13:22:20;3.90;;;1.85;;
41897;SDS011;27576;53.366;-1.498;2022-07-29T13:27:25;5.38;;;1.67;;
41897;SDS011;27576;53.366;-1.498;2022-07-29T13:29:53;3.42;;;1.80;;
41897;SDS011;27576;53.366;-1.498;2022-07-29T13:32:21;2.28;;;1.30;;
41897;SDS011;27576;53.366;-1.498;2022-07-29T13:34:48;2.92;;;1.38;;
41897;SDS011;27576;53.366;-1.498;2022-07-29T13:37:13;3.42;;;1.60;;
41897;SDS011;27576;53.366;-1.498;2022-07-29T13:39:39;2.65;;;1.75;;
41897;SDS011;27576;53.366;-1.498;2022-07-29T13:42:06;3.13;;;1.40;;
41897;SDS011;27576;53.366;-1.498;2022-07-29T13:44:32;2.95;;;1.40;;
41897;SDS011;27576;53.366;-1.498;2022-07-29T13:46:57;6.88;;;1.80;;
41897;SDS011;27576;53.366;-1.498;2022-07-29T13:49:24;2.35;;;1.50;;
41897;SDS011;27576;53.366;-1.498;2022-07-29T13:51:49;2.75;;;1.40;;
41897;SDS011;27576;53.366;-1.498;2022-07-29T13:54:15;3.00;;;1.73;;
41897;SDS011;27576;53.366;-1.498;2022-07-29T13:56:41;1.48;;;1.35;;
41897;SDS011;27576;53.366;-1.498;2022-07-29T13:59:06;2.97;;;1.50;;
41897;SDS011;27576;53.366;-1.498;2022-07-29T14:01:33;2.75;;;1.38;;
41897;SDS011;27576;53.366;-1.498;2022-07-29T14:03:59;2.08;;;1.02;;
41897;SDS011;27576;53.366;-1.498;2022-07-29T14:06:25;1.90;;;1.40;;
41897;SDS011;27576;53.366;-1.498;2022-07-29T14:08:50;3.67;;;1.50;;
41897;SDS011;27576;53.366;-1.498;2022-07-29T14:11:15;2.75;;;1.60;;
41897;SDS011;27576;53.366;-1.498;2022-07-29T14:13:41;3.90;;;1.30;;
41897;SDS011;27576;53.366;-1.498;2022-07-29T14:16:06;3.33;;;1.48;;
41897;SDS011;27576;53.366;-1.498;2022-07-29T14:18:32;1.80;;;1.30;;
41897;SDS011;27576;53.366;-1.498;2022-07-29T14:20:58;1.75;;;1.48;;
41897;SDS011;27576;53.366;-1.498;2022-07-29T14:23:23;6.18;;;1.60;;
41897;SDS011;27576;53.366;-1.498;2022-07-29T14:25:49;3.85;;;1.40;;
41897;SDS011;27576;53.366;-1.498;2022-07-29T14:28:15;2.38;;;1.42;;
41897;SDS011;27576;53.366;-1.498;2022-07-29T14:30:40;2.65;;;1.48;;
41897;SDS011;27576;53.366;-1.498;2022-07-29T14:33:06;7.38;;;1.73;;
41897;SDS011;27576;53.366;-1.498;2022-07-29T14:35:31;2.67;;;1.35;;
41897;SDS011;27576;53.366;-1.498;2022-07-29T14:37:57;2.50;;;1.50;;
41897;SDS011;27576;53.366;-1.498;2022-07-29T14:40:23;2.00;;;1.60;;
41897;SDS011;27576;53.366;-1.498;2022-07-29T14:42:48;2.78;;;1.55;;
41897;SDS011;27576;53.366;-1.498;2022-07-29T14:45:14;2.05;;;1.48;;
41897;SDS011;27576;53.366;-1.498;2022-07-29T14:47:39;1.52;;;1.20;;
41897;SDS011;27576;53.366;-1.498;2022-07-29T14:50:05;3.35;;;1.63;;
41897;SDS011;27576;53.366;-1.498;2022-07-29T14:52:31;2.97;;;1.30;;
41897;SDS011;27576;53.366;-1.498;2022-07-29T14:54:57;1.45;;;1.15;;
41897;SDS011;27576;53.366;-1.498;2022-07-29T14:57:23;2.17;;;1.35;;
41897;SDS011;27576;53.366;-1.498;2022-07-29T14:59:48;4.47;;;1.50;;
41897;SDS011;27576;53.366;-1.498;2022-07-29T15:02:16;3.70;;;1.40;;
41897;SDS011;27576;53.366;-1.498;2022-07-29T15:04:42;3.03;;;1.67;;
41897;SDS011;27576;53.366;-1.498;2022-07-29T15:07:08;4.75;;;2.25;;
41897;SDS011;27576;53.366;-1.498;2022-07-29T15:09:34;3.92;;;1.70;;
41897;SDS011;27576;53.366;-1.498;2022-07-29T15:11:59;2.70;;;1.38;;
41897;SDS011;27576;53.366;-1.498;2022-07-29T15:14:24;4.40;;;1.90;;
41897;SDS011;27576;53.366;-1.498;2022-07-29T15:16:50;5.93;;;2.30;;
41897;SDS011;27576;53.366;-1.498;2022-07-29T15:19:15;3.60;;;1.70;;
41897;SDS011;27576;53.366;-1.498;2022-07-29T15:21:41;3.95;;;1.55;;
41897;SDS011;27576;53.366;-1.498;2022-07-29T15:24:06;3.45;;;1.92;;
41897;SDS011;27576;53.366;-1.498;2022-07-29T15:26:32;3.60;;;1.70;;
41897;SDS011;27576;53.366;-1.498;2022-07-29T15:28:58;3.40;;;1.67;;
41897;SDS011;27576;53.366;-1.498;2022-07-29T15:31:24;2.05;;;1.52;;
41897;SDS011;27576;53.366;-1.498;2022-07-29T15:33:49;2.85;;;1.73;;
41897;SDS011;27576;53.366;-1.498;2022-07-29T15:36:15;4.85;;;2.25;;